Time;durP1;ratioP1;P1;durP2;ratioP2;P2;SDS_P1;SDS_P2;PMS_P1;PMS_P2;Temp;Humidity;BMP_temperature;BMP_pressure;BME280_temperature;BME280_humidity;BME280_pressure;Samples;Min_cycle;Max_cycle;Signal;HPM_P1;HPM_P2
2023/02/22 00:00:22;;;;;;;119.97;28.90;;;6.70;99.90;;;;;;4979221;28;20163;-82
2023/02/22 00:03:14;;;;;;;143.77;29.65;;;6.70;99.90;;;;;;4978739;28;20185;-82
2023/02/22 00:06:14;;;;;;;145.77;33.67;;;6.70;99.90;;;;;;4979498;28;20148;-82
2023/02/22 00:08:49;;;;;;;177.55;31.85;;;6.70;99.90;;;;;;4979262;28;20238;-83
2023/02/22 00:14:57;;;;;;;175.45;34.75;;;6.70;99.90;;;;;;4926528;28;20176;-81
2023/02/22 00:17:47;;;;;;;155.52;33.58;;;6.70;99.90;;;;;;4978954;28;20191;-82
2023/02/22 00:20:24;;;;;;;218.38;37.53;;;6.70;99.90;;;;;;4979332;28;20162;-82
2023/02/22 00:22:50;;;;;;;196.90;36.17;;;6.70;99.90;;;;;;4979333;28;20183;-82
2023/02/22 00:25:33;;;;;;;174.07;34.88;;;6.70;99.90;;;;;;4979386;28;20210;-82
2023/02/22 00:28:03;;;;;;;178.07;37.58;;;6.70;99.90;;;;;;4979683;28;20158;-82
2023/02/22 00:31:10;;;;;;;210.45;36.83;;;6.70;99.90;;;;;;4978592;28;20167;-82
2023/02/22 00:33:43;;;;;;;174.45;38.38;;;6.70;99.90;;;;;;4978958;28;20171;-82
2023/02/22 00:36:17;;;;;;;126.95;29.45;;;6.70;99.90;;;;;;4977923;28;20213;-82
2023/02/22 00:38:49;;;;;;;152.75;30.88;;;6.70;99.90;;;;;;4978772;28;20582;-82
2023/02/22 00:41:33;;;;;;;149.18;33.53;;;6.70;99.90;;;;;;4988478;22;20203;-82
2023/02/22 00:44:45;;;;;;;147.45;33.20;;;6.60;99.90;;;;;;4998949;28;20154;-82
2023/02/22 00:47:31;;;;;;;139.90;33.67;;;6.50;99.90;;;;;;4983291;28;20217;-82
2023/02/22 00:50:11;;;;;;;167.27;29.42;;;6.50;99.90;;;;;;4999150;28;20155;-82
2023/02/22 00:55:55;;;;;;;148.43;34.78;;;6.50;99.90;;;;;;4919443;29;20179;-82
2023/02/22 00:58:59;;;;;;;;;;;;;;;;;;;;;
2023/02/22 01:02:33;;;;;;;167.90;34.03;;;6.40;99.90;;;;;;4917311;29;20284;-82
2023/02/22 01:05:42;;;;;;;122.45;31.38;;;6.40;99.90;;;;;;4900344;29;20329;-82
2023/02/22 01:09:03;;;;;;;143.02;33.42;;;6.50;99.90;;;;;;4912527;29;20239;-82
2023/02/22 01:14:35;;;;;;;169.48;31.45;;;6.40;99.90;;;;;;1049858;26;20577;-82
2023/02/22 01:17:54;;;;;;;;;;;;;;;;;;;;;
2023/02/22 01:20:50;;;;;;;;;;;;;;;;;;;;;
2023/02/22 01:23:40;;;;;;;152.40;35.55;;;6.50;99.90;;;;;;4921153;29;20622;-82
2023/02/22 01:30:07;;;;;;;139.77;35.15;;;6.40;99.90;;;;;;4881997;29;20181;-82
2023/02/22 01:36:38;;;;;;;169.10;33.53;;;6.40;99.90;;;;;;4903964;29;20201;-82
2023/02/22 01:44:36;;;;;;;149.15;36.83;;;6.40;99.90;;;;;;4999793;28;20197;-82
2023/02/22 01:51:10;;;;;;;;;;;;;;;;;;;;;
2023/02/22 01:54:08;;;;;;;214.13;42.50;;;6.40;99.90;;;;;;4922675;29;20255;-82
2023/02/22 01:57:54;;;;;;;186.32;38.63;;;6.50;99.90;;;;;;4921839;29;20246;-82
2023/02/22 02:04:16;;;;;;;;;;;;;;;;;;;;;
2023/02/22 02:07:40;;;;;;;;;;;;;;;;;;;;;
2023/02/22 02:10:23;;;;;;;142.35;36.47;;;6.50;99.90;;;;;;4940509;29;20188;-82
2023/02/22 02:13:33;;;;;;;167.27;39.83;;;6.50;99.90;;;;;;5000966;28;20186;-82
2023/02/22 02:19:26;;;;;;;160.65;38.30;;;6.50;99.90;;;;;;4999882;28;20186;-82
2023/02/22 02:22:49;;;;;;;164.82;34.35;;;6.60;99.90;;;;;;4997831;23;20581;-82
2023/02/22 02:25:21;;;;;;;140.77;36.53;;;6.60;99.90;;;;;;4978322;28;20255;-82
2023/02/22 02:28:27;;;;;;;180.85;38.33;;;6.50;99.90;;;;;;4978613;28;20182;-83
2023/02/22 02:31:26;;;;;;;146.00;39.10;;;6.50;99.90;;;;;;4978597;28;20241;-82
2023/02/22 02:34:43;;;;;;;158.57;40.55;;;6.40;99.90;;;;;;4961862;28;20231;-82
2023/02/22 02:37:51;;;;;;;141.70;34.47;;;6.40;99.90;;;;;;4902231;29;20202;-82
2023/02/22 02:41:23;;;;;;;;;;;;;;;;;;;;;
2023/02/22 02:47:41;;;;;;;165.00;36.85;;;6.50;99.90;;;;;;4893527;28;20256;-82
2023/02/22 02:51:36;;;;;;;170.95;40.47;;;6.50;99.90;;;;;;4979444;28;20326;-83
2023/02/22 02:54:00;;;;;;;135.63;35.05;;;6.40;99.90;;;;;;4958262;28;20242;-82
2023/02/22 02:59:53;;;;;;;149.82;38.00;;;6.50;99.90;;;;;;4975063;28;20230;-82
2023/02/22 03:06:24;;;;;;;130.57;36.47;;;6.40;99.90;;;;;;4980327;28;20222;-82
2023/02/22 03:09:46;;;;;;;124.18;34.40;;;6.50;99.90;;;;;;4981519;28;20174;-83
2023/02/22 03:13:09;;;;;;;139.85;33.03;;;6.50;99.90;;;;;;4974080;28;20203;-82
2023/02/22 03:16:01;;;;;;;;;;;;;;;;;;;;;
2023/02/22 03:19:27;;;;;;;128.85;32.28;;;6.50;99.90;;;;;;4980190;28;20255;-83
2023/02/22 03:21:59;;;;;;;137.85;30.92;;;6.40;99.90;;;;;;4975797;28;20195;-83
2023/02/22 03:24:57;;;;;;;142.80;30.80;;;6.40;99.90;;;;;;4976524;28;20194;-83
2023/02/22 03:28:16;;;;;;;;;;;;;;;;;;;;;
2023/02/22 03:38:01;;;;;;;124.20;33.90;;;6.20;99.90;;;;;;4978213;28;20211;-83
2023/02/22 03:40:33;;;;;;;142.50;38.88;;;6.20;99.90;;;;;;4978933;28;20171;-83
2023/02/22 03:43:27;;;;;;;145.32;40.15;;;6.20;99.90;;;;;;4979876;28;20215;-84
2023/02/22 03:46:07;;;;;;;119.00;37.42;;;6.10;99.90;;;;;;4979137;28;20179;-82
2023/02/22 03:49:09;;;;;;;116.85;37.17;;;6.20;99.90;;;;;;4980102;28;20603;-83
2023/02/22 03:51:44;;;;;;;115.78;31.70;;;6.20;99.90;;;;;;4978293;28;20203;-83
2023/02/22 03:57:51;;;;;;;135.00;33.58;;;6.20;99.90;;;;;;4973083;28;20205;-82
2023/02/22 04:00:37;;;;;;;126.32;34.88;;;6.20;99.90;;;;;;4980261;28;20174;-83
2023/02/22 04:03:39;;;;;;;149.05;34.53;;;6.10;99.90;;;;;;4980161;28;20637;-83
2023/02/22 04:06:23;;;;;;;122.95;33.83;;;6.10;99.90;;;;;;4975289;28;20253;-83
2023/02/22 04:08:52;;;;;;;133.25;32.13;;;6.10;99.90;;;;;;4978773;28;20174;-83
2023/02/22 04:11:29;;;;;;;116.63;35.00;;;6.10;99.90;;;;;;4997313;28;20195;-83
2023/02/22 04:14:12;;;;;;;105.82;29.67;;;6.10;99.90;;;;;;4997855;28;20713;-83
2023/02/22 04:17:11;;;;;;;122.05;31.83;;;6.10;99.90;;;;;;4981252;28;20248;-83
2023/02/22 04:20:02;;;;;;;106.25;29.83;;;6.10;99.90;;;;;;4974072;28;20178;-83
2023/02/22 04:22:49;;;;;;;144.68;30.27;;;6.10;99.90;;;;;;4998056;28;20206;-83
2023/02/22 04:25:32;;;;;;;127.20;30.83;;;6.10;99.90;;;;;;4998005;28;20159;-83
2023/02/22 04:28:22;;;;;;;;;;;;;;;;;;;;;
2023/02/22 04:30:53;;;;;;;98.95;28.98;;;6.10;99.90;;;;;;4995614;28;20266;-83
2023/02/22 04:33:19;;;;;;;119.20;31.23;;;6.10;99.90;;;;;;4981252;28;20144;-84
2023/02/22 04:35:48;;;;;;;117.43;29.37;;;6.10;99.90;;;;;;4981649;28;20190;-83
2023/02/22 04:38:19;;;;;;;121.78;28.88;;;6.10;99.90;;;;;;4980718;28;20533;-83
2023/02/22 04:40:58;;;;;;;;;;;;;;;;;;;;;
2023/02/22 04:43:31;;;;;;;124.68;29.65;;;6.00;99.90;;;;;;4980356;28;20203;-82
2023/02/22 04:46:03;;;;;;;104.25;29.20;;;5.90;99.90;;;;;;4980543;28;20195;-83
2023/02/22 04:48:32;;;;;;;114.35;28.45;;;6.00;99.90;;;;;;4980678;28;20166;-83
2023/02/22 04:51:03;;;;;;;105.13;30.52;;;6.00;99.90;;;;;;4983757;28;20254;-83
2023/02/22 04:53:34;;;;;;;135.40;26.90;;;6.00;99.90;;;;;;4985076;28;20156;-84
2023/02/22 04:56:10;;;;;;;113.82;27.65;;;6.00;99.90;;;;;;4984360;28;20194;-82
2023/02/22 04:58:58;;;;;;;121.40;27.27;;;6.00;99.90;;;;;;4985253;28;20186;-82
2023/02/22 05:01:39;;;;;;;130.27;28.85;;;6.00;99.90;;;;;;4984480;28;20266;-82
2023/02/22 05:04:11;;;;;;;109.53;29.10;;;6.10;99.90;;;;;;4983148;28;20199;-82
2023/02/22 05:06:53;;;;;;;121.03;29.58;;;6.00;99.90;;;;;;4984728;28;20155;-82
2023/02/22 05:12:06;;;;;;;125.10;28.02;;;6.00;99.90;;;;;;4490636;22;20316;-83
2023/02/22 05:15:00;;;;;;;127.32;28.70;;;6.00;99.90;;;;;;5004380;28;20166;-83
2023/02/22 05:17:33;;;;;;;124.20;25.73;;;5.90;99.90;;;;;;5003065;28;20543;-83
2023/02/22 05:20:34;;;;;;;136.07;29.10;;;6.00;99.90;;;;;;5003419;28;20174;-83
2023/02/22 05:23:04;;;;;;;161.13;26.08;;;6.00;99.90;;;;;;5073533;22;20198;-83
2023/02/22 05:25:30;;;;;;;136.77;27.67;;;6.00;99.90;;;;;;5001028;28;20201;-83
2023/02/22 05:28:06;;;;;;;128.65;28.42;;;6.00;99.90;;;;;;5000405;28;20198;-83
2023/02/22 05:30:34;;;;;;;115.03;29.40;;;6.00;99.90;;;;;;5001363;28;20495;-83
2023/02/22 05:33:00;;;;;;;113.13;28.58;;;5.90;99.90;;;;;;5001259;28;20274;-83
2023/02/22 05:35:27;;;;;;;130.15;28.58;;;5.90;99.90;;;;;;5001686;28;20205;-83
2023/02/22 05:37:54;;;;;;;125.32;28.13;;;6.00;99.90;;;;;;5002277;28;20201;-83
2023/02/22 05:40:22;;;;;;;128.32;26.17;;;6.00;99.90;;;;;;5002434;28;20163;-83
2023/02/22 05:42:49;;;;;;;134.18;28.50;;;5.90;99.90;;;;;;5002066;28;20179;-83
2023/02/22 05:45:17;;;;;;;117.63;29.13;;;5.90;99.90;;;;;;5002022;28;20163;-83
2023/02/22 05:47:43;;;;;;;114.32;30.42;;;5.90;99.90;;;;;;5001863;28;20167;-83
2023/02/22 05:50:10;;;;;;;131.02;28.17;;;5.80;99.90;;;;;;5000915;28;20171;-83
2023/02/22 05:52:37;;;;;;;137.80;26.00;;;5.80;99.90;;;;;;5001716;28;20218;-83
2023/02/22 05:55:04;;;;;;;109.40;30.30;;;5.80;99.90;;;;;;5000571;28;20565;-83
2023/02/22 05:57:29;;;;;;;128.90;29.35;;;5.80;99.90;;;;;;5001362;28;20198;-83
2023/02/22 05:59:55;;;;;;;135.27;27.07;;;5.80;99.90;;;;;;5001666;28;20238;-83
2023/02/22 06:02:21;;;;;;;147.27;27.50;;;5.80;99.90;;;;;;4999952;28;20516;-83
2023/02/22 06:04:47;;;;;;;166.63;31.40;;;5.80;99.90;;;;;;5000638;28;20424;-83
2023/02/22 06:07:13;;;;;;;122.80;30.07;;;5.70;99.90;;;;;;5001488;28;20409;-83
2023/02/22 06:09:40;;;;;;;123.18;31.02;;;5.70;99.90;;;;;;4999876;28;20558;-83
2023/02/22 06:12:06;;;;;;;124.38;27.35;;;5.70;99.90;;;;;;5001124;28;20190;-83
2023/02/22 06:14:32;;;;;;;101.90;29.58;;;5.70;99.90;;;;;;5000270;28;20166;-83
2023/02/22 06:16:59;;;;;;;108.90;29.27;;;5.70;99.90;;;;;;4999930;28;20658;-83
2023/02/22 06:19:26;;;;;;;121.60;26.90;;;5.70;99.90;;;;;;4999978;28;20669;-83
2023/02/22 06:21:54;;;;;;;162.82;26.88;;;5.70;99.90;;;;;;4999530;28;20209;-83
2023/02/22 06:24:20;;;;;;;188.85;27.90;;;5.80;99.90;;;;;;5000744;28;20217;-83
2023/02/22 06:26:45;;;;;;;117.03;27.33;;;5.70;99.90;;;;;;5000783;28;20579;-83
2023/02/22 06:29:11;;;;;;;145.77;27.17;;;5.70;99.90;;;;;;4999382;28;20489;-83
2023/02/22 06:31:37;;;;;;;145.80;31.10;;;5.70;99.90;;;;;;5000541;28;20429;-83
2023/02/22 06:34:03;;;;;;;168.27;28.50;;;5.60;99.90;;;;;;4999379;28;20504;-83
2023/02/22 06:36:30;;;;;;;134.85;26.52;;;5.60;99.90;;;;;;5000042;28;20170;-83
2023/02/22 06:38:59;;;;;;;158.38;28.80;;;5.60;99.90;;;;;;4998955;28;20199;-83
2023/02/22 06:41:24;;;;;;;118.57;27.83;;;5.60;99.90;;;;;;4999407;28;20190;-82
2023/02/22 06:43:50;;;;;;;128.27;27.30;;;5.60;99.90;;;;;;5000678;28;20222;-82
2023/02/22 06:46:16;;;;;;;153.57;30.70;;;5.60;99.90;;;;;;5000802;28;20171;-82
2023/02/22 06:48:41;;;;;;;119.37;28.60;;;5.60;99.90;;;;;;5000814;28;20170;-83
2023/02/22 06:51:08;;;;;;;136.77;27.57;;;5.60;99.90;;;;;;5000199;28;20162;-82
2023/02/22 06:53:34;;;;;;;163.15;28.92;;;5.60;99.90;;;;;;4999392;28;20428;-82
2023/02/22 06:56:01;;;;;;;118.97;27.23;;;5.60;99.90;;;;;;5000465;28;20169;-83
2023/02/22 06:58:27;;;;;;;142.38;29.25;;;5.60;99.90;;;;;;5000600;28;20202;-82
2023/02/22 07:00:56;;;;;;;133.13;30.20;;;5.60;99.90;;;;;;4998882;28;20170;-82
2023/02/22 07:03:21;;;;;;;146.82;28.35;;;5.60;99.90;;;;;;5000275;28;20185;-82
2023/02/22 07:05:47;;;;;;;143.10;28.63;;;5.60;99.90;;;;;;5000241;28;20162;-83
2023/02/22 07:08:13;;;;;;;153.70;31.73;;;5.60;99.90;;;;;;5000481;28;20174;-82
2023/02/22 07:10:39;;;;;;;121.53;26.87;;;5.60;99.90;;;;;;4999877;28;20174;-83
2023/02/22 07:13:07;;;;;;;128.65;28.95;;;5.60;99.90;;;;;;4998657;28;20630;-82
2023/02/22 07:15:34;;;;;;;142.02;31.20;;;5.70;99.90;;;;;;4999917;28;20158;-82
2023/02/22 07:18:00;;;;;;;117.72;28.25;;;5.70;99.90;;;;;;5000390;28;20194;-82
2023/02/22 07:20:28;;;;;;;136.05;32.08;;;5.70;99.90;;;;;;4999779;28;20171;-82
2023/02/22 07:22:54;;;;;;;118.85;33.60;;;5.70;99.90;;;;;;5000316;28;20274;-83
2023/02/22 07:25:20;;;;;;;122.20;33.45;;;5.70;99.90;;;;;;5000881;28;20594;-83
2023/02/22 07:27:46;;;;;;;134.73;33.30;;;5.70;99.90;;;;;;5000731;28;20198;-84
2023/02/22 07:30:29;;;;;;;123.93;32.35;;;5.70;99.90;;;;;;5001254;28;20404;-83
2023/02/22 07:32:56;;;;;;;127.90;30.80;;;5.70;99.90;;;;;;5001221;28;20186;-83
2023/02/22 07:35:25;;;;;;;112.57;32.70;;;5.70;99.90;;;;;;5000870;28;20174;-83
2023/02/22 07:37:51;;;;;;;110.63;35.13;;;5.70;99.90;;;;;;4999466;28;20198;-83
2023/02/22 07:40:17;;;;;;;105.60;33.55;;;5.70;99.90;;;;;;5001345;28;20171;-83
2023/02/22 07:42:50;;;;;;;111.20;35.47;;;5.70;99.90;;;;;;4998910;28;20197;-83
2023/02/22 07:45:17;;;;;;;113.35;36.13;;;5.80;99.90;;;;;;4999255;28;20170;-83
2023/02/22 07:47:44;;;;;;;102.32;35.85;;;5.80;99.90;;;;;;5000273;28;20194;-83
2023/02/22 07:50:11;;;;;;;108.15;34.03;;;5.80;99.90;;;;;;4999483;28;20597;-83
2023/02/22 07:52:37;;;;;;;111.88;33.20;;;5.90;99.90;;;;;;5000104;28;20220;-83
2023/02/22 07:55:02;;;;;;;106.80;33.00;;;6.00;99.90;;;;;;4998712;28;20609;-83
2023/02/22 07:57:28;;;;;;;102.80;35.50;;;6.00;99.90;;;;;;4999110;28;20531;-83
2023/02/22 07:59:54;;;;;;;102.10;31.90;;;6.00;99.90;;;;;;5000078;28;20562;-83
2023/02/22 08:02:20;;;;;;;108.90;35.73;;;6.10;99.90;;;;;;4998324;28;20704;-83
2023/02/22 08:04:46;;;;;;;103.55;31.35;;;6.10;99.90;;;;;;5000030;28;20177;-83
2023/02/22 08:07:11;;;;;;;107.50;30.20;;;6.20;99.90;;;;;;4999980;28;20151;-83
2023/02/22 08:09:37;;;;;;;95.73;25.37;;;6.40;99.90;;;;;;4999326;28;20758;-83
2023/02/22 08:12:03;;;;;;;102.90;28.87;;;6.50;99.90;;;;;;4999268;28;20543;-83
2023/02/22 08:14:28;;;;;;;101.97;31.07;;;6.40;99.90;;;;;;4999272;28;20174;-83
2023/02/22 08:16:54;;;;;;;98.53;30.87;;;6.40;99.90;;;;;;4999319;28;20445;-83
2023/02/22 08:19:21;;;;;;;103.40;31.67;;;6.40;99.90;;;;;;4999181;28;20178;-84
2023/02/22 08:21:47;;;;;;;97.55;27.30;;;6.50;99.90;;;;;;4997600;28;20194;-83
2023/02/22 08:24:12;;;;;;;95.93;28.23;;;6.60;99.90;;;;;;4998308;28;20539;-83
2023/02/22 08:26:44;;;;;;;97.40;35.40;;;6.60;99.90;;;;;;4999183;28;20511;-83
2023/02/22 08:29:10;;;;;;;94.30;28.70;;;6.70;99.90;;;;;;4999489;28;20286;-82
2023/02/22 08:31:35;;;;;;;93.37;29.13;;;6.80;99.90;;;;;;4999501;28;20237;-83
2023/02/22 08:34:01;;;;;;;93.07;30.87;;;6.80;99.90;;;;;;4999516;28;20147;-83
2023/02/22 08:36:28;;;;;;;100.53;29.83;;;6.80;99.90;;;;;;4998081;28;20181;-83
2023/02/22 08:38:54;;;;;;;99.47;35.50;;;6.90;99.90;;;;;;4998807;28;20154;-82
2023/02/22 08:41:19;;;;;;;95.20;34.83;;;6.90;99.90;;;;;;4998100;28;20189;-83
2023/02/22 08:43:45;;;;;;;98.13;32.97;;;7.00;99.90;;;;;;4997665;28;20418;-83
2023/02/22 08:46:11;;;;;;;92.80;32.73;;;7.00;99.90;;;;;;4999467;28;20213;-83
2023/02/22 08:48:36;;;;;;;93.80;29.97;;;7.00;99.90;;;;;;4998902;28;20224;-83
2023/02/22 08:51:02;;;;;;;98.57;31.30;;;7.10;99.90;;;;;;4999396;28;20278;-83
2023/02/22 08:53:29;;;;;;;95.77;31.10;;;7.10;99.90;;;;;;4998726;28;20237;-82
2023/02/22 08:55:54;;;;;;;94.72;30.20;;;7.20;99.90;;;;;;4997430;28;20254;-82
2023/02/22 08:58:20;;;;;;;95.37;29.37;;;7.20;99.90;;;;;;4998545;28;20207;-83
2023/02/22 09:00:46;;;;;;;96.70;31.77;;;7.30;99.90;;;;;;4998437;28;20233;-82
2023/02/22 09:03:13;;;;;;;90.97;25.27;;;7.30;99.90;;;;;;4998659;28;20182;-83
2023/02/22 09:05:41;;;;;;;90.97;26.23;;;7.40;99.90;;;;;;4997537;28;20261;-83
2023/02/22 09:08:07;;;;;;;96.00;29.98;;;7.40;99.90;;;;;;4999681;28;20162;-82
2023/02/22 09:10:33;;;;;;;96.67;26.30;;;7.50;99.90;;;;;;4999090;28;20623;-82
2023/02/22 09:12:59;;;;;;;93.75;26.40;;;7.60;99.90;;;;;;4998403;28;20187;-83
2023/02/22 09:15:26;;;;;;;93.50;23.90;;;7.60;99.90;;;;;;4997420;28;20170;-82
2023/02/22 09:17:52;;;;;;;91.43;23.33;;;7.70;99.90;;;;;;4997534;28;20889;-83
2023/02/22 09:20:20;;;;;;;100.75;24.30;;;7.80;99.90;;;;;;4999920;28;20158;-83
2023/02/22 09:22:47;;;;;;;96.15;22.65;;;7.90;99.90;;;;;;4997877;28;20187;-83
2023/02/22 09:25:13;;;;;;;92.78;23.20;;;8.10;99.90;;;;;;4998577;28;20551;-83
2023/02/22 09:27:39;;;;;;;91.97;25.30;;;8.10;99.90;;;;;;4997428;28;20171;-82
2023/02/22 09:30:10;;;;;;;95.57;29.83;;;8.20;99.90;;;;;;4997982;28;20166;-82
2023/02/22 09:32:36;;;;;;;97.38;29.83;;;8.30;99.90;;;;;;4998283;28;20190;-82
2023/02/22 09:35:01;;;;;;;92.20;27.63;;;8.30;99.90;;;;;;4996876;28;20174;-82
2023/02/22 09:37:27;;;;;;;97.73;30.73;;;8.30;99.90;;;;;;5001896;28;20447;-83
2023/02/22 09:39:53;;;;;;;91.60;26.30;;;8.30;99.90;;;;;;5002418;28;20580;-83
2023/02/22 09:42:34;;;;;;;97.30;25.33;;;8.30;99.90;;;;;;5002861;28;20672;-83
2023/02/22 09:45:11;;;;;;;92.05;27.23;;;8.50;99.90;;;;;;5002558;28;20143;-83
2023/02/22 09:48:06;;;;;;;97.65;25.73;;;8.50;99.90;;;;;;5002505;28;20206;-82
2023/02/22 09:50:41;;;;;;;92.85;27.75;;;8.60;99.90;;;;;;5000818;28;20170;-83
2023/02/22 09:53:30;;;;;;;94.28;27.88;;;8.70;99.90;;;;;;5002490;28;20675;-82
2023/02/22 09:56:09;;;;;;;93.00;24.85;;;8.80;99.90;;;;;;5001959;28;20162;-83
2023/02/22 09:58:45;;;;;;;93.93;20.63;;;8.90;99.90;;;;;;5002603;28;20175;-83
2023/02/22 10:01:26;;;;;;;91.85;21.13;;;9.00;99.90;;;;;;5003414;28;20213;-83
2023/02/22 10:04:31;;;;;;;93.05;19.73;;;9.10;99.90;;;;;;5003042;28;20147;-83
2023/02/22 10:07:24;;;;;;;95.15;18.02;;;9.20;99.90;;;;;;4997228;28;20182;-83
2023/02/22 10:09:54;;;;;;;83.50;15.88;;;9.40;99.90;;;;;;5001138;28;20223;-83
2023/02/22 10:12:27;;;;;;;89.47;16.55;;;9.50;99.90;;;;;;5001907;28;20189;-84
2023/02/22 10:15:05;;;;;;;83.80;15.60;;;9.60;99.90;;;;;;5001095;28;20171;-83
2023/02/22 10:17:42;;;;;;;88.85;17.15;;;9.60;99.90;;;;;;5000212;28;20196;-83
2023/02/22 10:20:36;;;;;;;82.13;14.73;;;9.60;99.90;;;;;;5001321;28;20168;-83
2023/02/22 10:23:07;;;;;;;85.70;16.60;;;9.80;99.90;;;;;;5001722;28;20216;-83
2023/02/22 10:25:36;;;;;;;86.88;16.83;;;9.90;99.90;;;;;;5000804;28;20257;-83
2023/02/22 10:28:17;;;;;;;88.57;18.75;;;10.10;99.90;;;;;;5000112;28;20236;-83
2023/02/22 10:30:55;;;;;;;90.75;19.20;;;10.20;99.90;;;;;;5002071;28;20143;-83
2023/02/22 10:33:25;;;;;;;91.22;19.65;;;10.20;99.90;;;;;;5001612;28;20611;-83
2023/02/22 10:35:53;;;;;;;86.90;18.85;;;10.30;99.90;;;;;;5000567;28;20170;-83
2023/02/22 10:38:22;;;;;;;86.43;19.35;;;10.30;99.90;;;;;;5001391;28;20236;-83
2023/02/22 10:40:56;;;;;;;90.65;18.58;;;10.30;99.90;;;;;;5000132;28;20162;-83
2023/02/22 10:43:22;;;;;;;88.78;19.23;;;10.50;99.90;;;;;;5001742;28;20161;-83
2023/02/22 10:45:55;;;;;;;86.35;18.20;;;10.70;99.90;;;;;;5001273;28;20174;-83
2023/02/22 10:48:23;;;;;;;84.97;18.60;;;10.80;99.90;;;;;;5001451;28;20155;-83
2023/02/22 10:50:53;;;;;;;86.57;17.83;;;11.00;99.90;;;;;;5001676;28;20173;-83
2023/02/22 10:53:19;;;;;;;90.35;20.15;;;11.10;99.90;;;;;;5001242;28;20161;-83
2023/02/22 10:56:24;;;;;;;87.73;16.90;;;11.10;99.90;;;;;;5000840;28;20171;-83
2023/02/22 10:59:01;;;;;;;89.20;16.15;;;11.20;99.90;;;;;;4999201;28;20569;-83
2023/02/22 11:01:34;;;;;;;84.78;16.00;;;11.30;99.90;;;;;;5000915;28;20187;-83
2023/02/22 11:04:22;;;;;;;90.20;16.02;;;11.40;99.90;;;;;;4999782;28;20159;-83
2023/02/22 11:07:28;;;;;;;83.90;15.77;;;11.50;99.90;;;;;;5000950;28;20161;-83
2023/02/22 11:10:03;;;;;;;82.00;14.55;;;11.60;99.90;;;;;;4992269;28;20539;-83
2023/02/22 11:12:37;;;;;;;87.00;14.98;;;11.80;99.90;;;;;;4998735;28;20186;-83
2023/02/22 11:15:25;;;;;;;85.60;15.57;;;11.90;99.90;;;;;;5000503;28;20222;-83
2023/02/22 11:17:54;;;;;;;83.10;15.55;;;11.90;99.90;;;;;;4999664;28;20197;-83
2023/02/22 11:20:26;;;;;;;80.22;15.23;;;12.10;99.90;;;;;;5000718;28;20159;-83
2023/02/22 11:22:57;;;;;;;83.85;14.57;;;12.10;99.90;;;;;;5000429;28;20197;-83
2023/02/22 11:25:34;;;;;;;80.00;12.50;;;12.10;99.90;;;;;;5063935;22;20230;-83
2023/02/22 11:28:16;;;;;;;78.25;11.55;;;12.30;99.90;;;;;;5000435;28;20154;-83
2023/02/22 11:30:48;;;;;;;79.68;12.90;;;12.30;99.90;;;;;;4998632;28;20166;-83
2023/02/22 11:33:24;;;;;;;78.00;11.18;;;12.50;99.90;;;;;;4998859;28;20252;-83
2023/02/22 11:35:58;;;;;;;80.20;13.07;;;12.60;99.90;;;;;;5000097;28;20174;-83
2023/02/22 11:38:28;;;;;;;81.00;12.60;;;12.70;99.90;;;;;;4999370;28;20196;-83
2023/02/22 11:41:06;;;;;;;82.55;11.75;;;12.80;99.90;;;;;;4999505;28;20162;-82
2023/02/22 11:43:33;;;;;;;80.07;12.63;;;13.00;99.90;;;;;;4998858;28;20170;-83
2023/02/22 11:46:10;;;;;;;72.10;8.88;;;13.10;99.90;;;;;;4999329;28;20197;-83
2023/02/22 11:48:43;;;;;;;77.38;10.20;;;13.30;99.90;;;;;;4998893;28;20460;-83
2023/02/22 11:51:16;;;;;;;75.68;10.75;;;13.40;99.90;;;;;;4999734;28;20218;-83
2023/02/22 11:54:05;;;;;;;72.95;9.25;;;13.50;99.90;;;;;;4999634;28;20586;-83
2023/02/22 11:56:44;;;;;;;71.20;9.00;;;13.60;70.00;;;;;;4999149;28;20159;-83
2023/02/22 11:59:33;;;;;;;72.80;8.73;;;13.50;45.90;;;;;;4998475;28;20393;-84
2023/02/22 12:02:29;;;;;;;70.78;8.75;;;13.60;25.00;;;;;;4999749;28;20423;-83
2023/02/22 12:04:57;;;;;;;72.45;7.72;;;13.60;19.90;;;;;;4991711;28;20575;-83
2023/02/22 12:07:31;;;;;;;78.32;9.88;;;13.50;26.90;;;;;;4999128;28;20170;-84
2023/02/22 12:10:05;;;;;;;73.87;9.80;;;13.60;24.20;;;;;;4999322;28;20155;-84
2023/02/22 12:13:03;;;;;;;73.05;9.30;;;13.70;22.70;;;;;;4997944;28;20438;-83
2023/02/22 12:16:10;;;;;;;73.13;10.40;;;13.50;24.20;;;;;;4999407;28;20705;-83
2023/02/22 12:18:52;;;;;;;74.68;9.43;;;13.60;25.70;;;;;;4999283;28;20444;-84
2023/02/22 12:21:21;;;;;;;71.68;9.68;;;13.50;18.20;;;;;;4999794;28;20186;-84
2023/02/22 12:23:58;;;;;;;74.47;9.97;;;13.50;21.10;;;;;;4999465;28;20265;-83
2023/02/22 12:26:29;;;;;;;74.73;9.77;;;13.50;20.60;;;;;;4999314;28;20396;-83
2023/02/22 12:29:04;;;;;;;79.15;10.52;;;13.60;21.20;;;;;;4999528;28;20390;-84
2023/02/22 12:31:40;;;;;;;75.53;10.65;;;13.70;25.30;;;;;;4997729;28;20257;-83
2023/02/22 12:34:18;;;;;;;72.53;9.98;;;13.60;18.30;;;;;;4998103;28;20289;-83
2023/02/22 12:37:09;;;;;;;74.57;10.30;;;13.50;26.10;;;;;;4998499;28;20221;-83
2023/02/22 12:39:41;;;;;;;73.78;10.20;;;13.60;25.80;;;;;;4998505;28;20398;-83
2023/02/22 12:42:17;;;;;;;82.32;10.43;;;13.50;24.20;;;;;;4998793;28;20690;-83
2023/02/22 12:44:55;;;;;;;75.65;10.63;;;13.40;31.40;;;;;;4998804;28;20142;-84
2023/02/22 12:47:28;;;;;;;74.57;10.07;;;13.40;23.50;;;;;;4998287;28;20147;-84
2023/02/22 12:50:04;;;;;;;74.87;10.10;;;13.30;23.80;;;;;;4997160;28;20465;-83
2023/02/22 12:52:56;;;;;;;73.45;9.07;;;13.30;22.60;;;;;;4997247;28;20441;-83
2023/02/22 12:55:27;;;;;;;73.63;9.35;;;13.20;21.70;;;;;;4998636;28;20519;-83
2023/02/22 12:58:13;;;;;;;76.28;11.32;;;13.20;17.50;;;;;;4997594;28;20696;-83
2023/02/22 13:00:54;;;;;;;75.15;9.30;;;13.20;22.60;;;;;;4999129;28;20186;-83
2023/02/22 13:03:40;;;;;;;71.95;9.82;;;13.20;17.60;;;;;;4998658;28;20150;-83
2023/02/22 13:06:37;;;;;;;72.15;9.40;;;13.20;24.50;;;;;;4998890;28;20148;-84
2023/02/22 13:09:14;;;;;;;76.13;10.30;;;13.20;19.80;;;;;;4997936;28;20143;-84
2023/02/22 13:12:00;;;;;;;78.53;9.95;;;13.30;23.40;;;;;;5002189;28;20448;-83
2023/02/22 13:14:35;;;;;;;75.30;9.70;;;13.30;17.50;;;;;;5002005;28;20182;-83
2023/02/22 13:17:25;;;;;;;76.20;9.65;;;13.30;20.60;;;;;;5001118;28;20484;-83
2023/02/22 13:20:01;;;;;;;73.93;9.98;;;13.30;21.50;;;;;;5000840;28;20163;-83
2023/02/22 13:22:30;;;;;;;75.03;9.65;;;13.30;17.90;;;;;;5002505;28;20225;-83
2023/02/22 13:25:08;;;;;;;79.77;10.20;;;13.40;22.10;;;;;;5002336;28;20269;-83
2023/02/22 13:27:56;;;;;;;73.25;10.02;;;13.50;16.80;;;;;;5001757;28;20406;-83
2023/02/22 13:30:26;;;;;;;73.15;9.77;;;13.70;21.90;;;;;;5002418;28;20182;-83
2023/02/22 13:33:01;;;;;;;75.37;10.03;;;13.80;16.70;;;;;;5002281;28;20237;-83
2023/02/22 13:35:49;;;;;;;75.20;10.55;;;14.00;10.30;;;;;;5001949;28;20451;-83
2023/02/22 13:38:29;;;;;;;78.22;10.75;;;14.10;6.70;;;;;;5001528;28;20186;-83
2023/02/22 13:41:42;;;;;;;83.80;11.50;;;14.20;2.00;;;;;;5002305;28;20143;-83
2023/02/22 13:44:45;;;;;;;72.53;8.30;;;14.30;2.30;;;;;;4992708;28;20413;-83
2023/02/22 13:47:28;;;;;;;78.53;9.17;;;14.40;3.00;;;;;;5001910;28;20401;-83
2023/02/22 13:49:54;;;;;;;72.13;8.70;;;14.30;1.00;;;;;;5001789;28;20382;-83
2023/02/22 13:52:25;;;;;;;75.57;8.90;;;14.30;4.60;;;;;;5001719;28;20424;-82
2023/02/22 13:55:09;;;;;;;83.73;9.70;;;14.40;1.00;;;;;;4998538;28;20151;-81
2023/02/22 13:57:48;;;;;;;76.83;9.90;;;14.30;1.00;;;;;;4999999;28;20434;-82
2023/02/22 14:00:14;;;;;;;76.40;10.03;;;14.40;1.00;;;;;;5000020;28;20397;-81
2023/02/22 14:02:55;;;;;;;78.40;9.90;;;14.30;1.00;;;;;;4999104;28;20425;-82
2023/02/22 14:05:45;;;;;;;75.20;9.10;;;14.30;1.00;;;;;;4996012;28;20202;-82
2023/02/22 14:08:26;;;;;;;74.57;9.60;;;14.30;1.00;;;;;;4997854;28;20382;-82
2023/02/22 14:11:04;;;;;;;75.67;9.70;;;14.20;1.00;;;;;;4998217;28;20390;-82
2023/02/22 14:13:55;;;;;;;75.95;9.60;;;14.20;1.00;;;;;;4999516;28;20745;-83
2023/02/22 14:16:23;;;;;;;73.13;8.80;;;14.20;1.00;;;;;;5000153;28;20179;-83
2023/02/22 14:19:00;;;;;;;73.93;9.27;;;14.20;4.50;;;;;;5001406;28;20445;-83
2023/02/22 14:21:26;;;;;;;71.23;9.17;;;14.30;1.00;;;;;;4997574;28;20433;-83
2023/02/22 14:23:54;;;;;;;72.33;9.70;;;14.30;2.60;;;;;;5000231;28;20444;-82
2023/02/22 14:26:32;;;;;;;80.40;11.53;;;14.40;4.90;;;;;;5000942;28;20174;-83
2023/02/22 14:29:06;;;;;;;73.53;10.73;;;14.40;1.00;;;;;;5000316;28;20413;-83
2023/02/22 14:31:42;;;;;;;72.67;9.10;;;14.40;1.00;;;;;;5000614;28;20417;-83
2023/02/22 14:34:18;;;;;;;76.77;10.40;;;14.50;1.00;;;;;;4998536;28;20405;-83